Time;durP1;ratioP1;P1;durP2;ratioP2;P2;SDS_P1;SDS_P2;PMS_P1;PMS_P2;Temp;Humidity;BMP_temperature;BMP_pressure;BME280_temperature;BME280_humidity;BME280_pressure;Samples;Min_cycle;Max_cycle;Signal;HPM_P1;HPM_P2
2020/12/04 00:00:26;;;;;;;13.65;6.43;;;;;;;;;;5021962;28;20052;-59
2020/12/04 00:02:52;;;;;;;14.50;6.35;;;;;;;;;;5020994;28;20107;-59
2020/12/04 00:05:19;;;;;;;13.30;5.57;;;;;;;;;;5023551;28;20033;-58
2020/12/04 00:07:45;;;;;;;12.13;5.88;;;;;;;;;;5022255;28;20550;-59
2020/12/04 00:10:11;;;;;;;12.70;5.03;;;;;;;;;;5023797;28;20037;-59
2020/12/04 00:12:37;;;;;;;13.32;5.07;;;;;;;;;;5021317;28;20034;-59
2020/12/04 00:15:04;;;;;;;12.60;5.57;;;;;;;;;;5023362;28;20045;-59
2020/12/04 00:17:30;;;;;;;13.77;4.85;;;;;;;;;;5015503;28;20026;-59
2020/12/04 00:19:56;;;;;;;11.00;4.30;;;;;;;;;;5016596;28;20075;-58
2020/12/04 00:22:22;;;;;;;13.15;6.00;;;;;;;;;;5020776;28;20053;-59
2020/12/04 00:24:48;;;;;;;11.88;4.95;;;;;;;;;;5019920;28;20493;-59
2020/12/04 00:27:14;;;;;;;13.65;6.05;;;;;;;;;;5011882;28;20026;-59
2020/12/04 00:29:40;;;;;;;10.63;4.72;;;;;;;;;;5017105;28;20044;-59
2020/12/04 00:32:06;;;;;;;11.65;5.07;;;;;;;;;;5016104;28;20026;-59
2020/12/04 00:34:32;;;;;;;13.68;5.28;;;;;;;;;;5019818;28;20045;-58
2020/12/04 00:36:58;;;;;;;14.73;4.70;;;;;;;;;;5015059;28;20021;-58
2020/12/04 00:39:25;;;;;;;11.82;4.63;;;;;;;;;;5022443;28;20029;-59
2020/12/04 00:41:51;;;;;;;12.68;5.05;;;;;;;;;;5024055;28;20091;-58
2020/12/04 00:44:17;;;;;;;11.98;5.93;;;;;;;;;;5020414;28;20029;-58
2020/12/04 00:46:43;;;;;;;11.15;4.88;;;;;;;;;;5023036;28;20638;-58
2020/12/04 00:49:09;;;;;;;12.55;4.53;;;;;;;;;;5023571;28;20052;-58
2020/12/04 00:51:35;;;;;;;11.63;4.55;;;;;;;;;;5019800;28;20021;-58
2020/12/04 00:54:02;;;;;;;14.27;6.25;;;;;;;;;;5017981;28;20029;-59
2020/12/04 00:56:31;;;;;;;11.90;5.05;;;;;;;;;;5018968;28;20029;-59
2020/12/04 00:58:57;;;;;;;11.88;5.30;;;;;;;;;;5024023;28;20065;-58
2020/12/04 01:01:23;;;;;;;9.85;4.38;;;;;;;;;;5022588;28;20381;-58
2020/12/04 01:03:49;;;;;;;11.43;5.43;;;;;;;;;;5014215;28;20064;-58
2020/12/04 01:06:15;;;;;;;12.07;4.45;;;;;;;;;;5019976;28;20516;-58
2020/12/04 01:08:42;;;;;;;13.68;4.95;;;;;;;;;;5023309;28;20358;-58
2020/12/04 01:11:08;;;;;;;13.27;5.22;;;;;;;;;;5019915;28;20037;-58
2020/12/04 01:13:35;;;;;;;12.85;5.80;;;;;;;;;;5023136;28;20123;-58
2020/12/04 01:16:02;;;;;;;11.00;5.03;;;;;;;;;;5020694;28;20030;-58
2020/12/04 01:18:28;;;;;;;12.35;5.82;;;;;;;;;;5023356;28;20024;-58
2020/12/04 01:20:54;;;;;;;8.98;4.30;;;;;;;;;;5023700;28;20079;-58
2020/12/04 01:23:20;;;;;;;10.05;4.63;;;;;;;;;;5022183;28;20033;-58
2020/12/04 01:25:46;;;;;;;13.05;4.72;;;;;;;;;;5021431;28;20033;-58
2020/12/04 01:28:12;;;;;;;12.02;4.45;;;;;;;;;;5021259;28;20022;-58
2020/12/04 01:30:38;;;;;;;10.90;4.28;;;;;;;;;;5022884;28;20423;-58
2020/12/04 01:33:05;;;;;;;10.13;4.45;;;;;;;;;;5022281;28;20057;-58
2020/12/04 01:35:31;;;;;;;10.20;4.75;;;;;;;;;;5023298;28;20030;-58
2020/12/04 01:37:57;;;;;;;9.75;3.90;;;;;;;;;;5022674;28;20505;-58
2020/12/04 01:40:23;;;;;;;9.77;3.50;;;;;;;;;;5022872;28;20413;-58
2020/12/04 01:42:49;;;;;;;9.80;3.75;;;;;;;;;;5024545;28;20120;-58
2020/12/04 01:45:15;;;;;;;9.02;4.13;;;;;;;;;;5021563;28;20504;-58
2020/12/04 01:47:41;;;;;;;11.50;4.18;;;;;;;;;;5025178;28;20029;-58
2020/12/04 01:50:08;;;;;;;9.75;4.40;;;;;;;;;;5024106;28;20025;-58
2020/12/04 01:52:34;;;;;;;10.40;4.45;;;;;;;;;;5023827;28;20127;-58
2020/12/04 01:55:02;;;;;;;9.63;4.32;;;;;;;;;;5026384;28;20698;-58
2020/12/04 01:57:28;;;;;;;9.38;4.20;;;;;;;;;;5025652;28;20022;-58
2020/12/04 01:59:54;;;;;;;9.30;3.72;;;;;;;;;;5023509;28;20026;-58
2020/12/04 02:02:23;;;;;;;8.80;3.83;;;;;;;;;;5019423;28;20052;-58
2020/12/04 02:04:50;;;;;;;8.52;3.20;;;;;;;;;;5024974;28;20025;-58
2020/12/04 02:07:16;;;;;;;11.68;4.65;;;;;;;;;;5022064;28;20479;-58
2020/12/04 02:09:45;;;;;;;8.95;3.60;;;;;;;;;;5022067;28;20030;-58
2020/12/04 02:12:15;;;;;;;10.65;4.35;;;;;;;;;;5023550;28;20040;-58
2020/12/04 02:14:43;;;;;;;8.27;3.65;;;;;;;;;;5025750;28;20033;-58
2020/12/04 02:17:10;;;;;;;10.00;4.03;;;;;;;;;;5026165;28;20052;-58
2020/12/04 02:19:40;;;;;;;10.80;4.53;;;;;;;;;;5026208;28;20033;-58
2020/12/04 02:22:06;;;;;;;9.60;3.75;;;;;;;;;;5024824;28;20385;-58
2020/12/04 02:24:32;;;;;;;10.43;3.85;;;;;;;;;;5027188;28;20052;-58
2020/12/04 02:26:58;;;;;;;11.57;4.10;;;;;;;;;;5027478;28;20120;-58
2020/12/04 02:29:28;;;;;;;11.30;4.70;;;;;;;;;;5024927;28;20033;-58
2020/12/04 02:31:54;;;;;;;12.05;4.68;;;;;;;;;;5025203;28;20481;-58
2020/12/04 02:34:20;;;;;;;12.23;5.30;;;;;;;;;;5020141;28;20372;-58
2020/12/04 02:36:46;;;;;;;9.30;4.05;;;;;;;;;;5023882;28;20013;-58
2020/12/04 02:39:13;;;;;;;9.98;4.43;;;;;;;;;;5011274;28;20053;-58
2020/12/04 02:41:44;;;;;;;10.98;4.50;;;;;;;;;;5020638;28;20037;-58
2020/12/04 02:44:10;;;;;;;10.70;4.50;;;;;;;;;;5016861;28;20104;-57
2020/12/04 02:46:36;;;;;;;10.65;4.50;;;;;;;;;;5026890;28;20042;-57
2020/12/04 02:49:02;;;;;;;11.38;5.00;;;;;;;;;;5029124;28;20030;-57
2020/12/04 02:51:28;;;;;;;9.88;4.30;;;;;;;;;;5007616;28;20076;-58
2020/12/04 02:53:54;;;;;;;8.25;3.35;;;;;;;;;;5019681;28;20030;-58
2020/12/04 02:56:21;;;;;;;8.65;3.67;;;;;;;;;;5026026;28;20029;-57
2020/12/04 02:58:47;;;;;;;8.85;3.92;;;;;;;;;;5023319;28;20029;-57
2020/12/04 03:01:13;;;;;;;9.10;4.13;;;;;;;;;;5027519;28;20037;-58
2020/12/04 03:03:39;;;;;;;10.60;4.10;;;;;;;;;;5020668;28;20029;-58
2020/12/04 03:06:05;;;;;;;10.02;4.63;;;;;;;;;;5022562;28;20025;-58
2020/12/04 03:08:31;;;;;;;10.55;4.10;;;;;;;;;;5028272;28;20030;-58
2020/12/04 03:10:57;;;;;;;9.15;3.63;;;;;;;;;;5022449;28;20026;-58
2020/12/04 03:13:23;;;;;;;9.45;4.20;;;;;;;;;;5028048;28;20241;-58
2020/12/04 03:15:49;;;;;;;11.10;4.53;;;;;;;;;;5026426;28;20086;-59
2020/12/04 03:18:16;;;;;;;9.00;3.70;;;;;;;;;;5027130;28;20096;-58
2020/12/04 03:20:42;;;;;;;8.77;3.80;;;;;;;;;;5028201;28;20029;-58
2020/12/04 03:23:08;;;;;;;8.10;3.25;;;;;;;;;;5028194;28;20091;-58
2020/12/04 03:25:34;;;;;;;8.65;3.85;;;;;;;;;;5025637;28;20025;-58
2020/12/04 03:28:00;;;;;;;9.77;3.60;;;;;;;;;;5019779;28;20044;-58
2020/12/04 03:30:26;;;;;;;8.10;3.58;;;;;;;;;;5027486;28;20026;-58
2020/12/04 03:32:52;;;;;;;9.63;3.75;;;;;;;;;;5026310;28;20029;-58
2020/12/04 03:35:18;;;;;;;7.13;3.03;;;;;;;;;;5028009;28;20030;-58
2020/12/04 03:37:44;;;;;;;10.43;4.47;;;;;;;;;;5021169;28;20033;-58
2020/12/04 03:40:10;;;;;;;8.75;3.45;;;;;;;;;;5025892;28;20079;-58
2020/12/04 03:42:36;;;;;;;8.55;3.67;;;5.50;99.90;;;;;;5017894;28;20050;-58
2020/12/04 03:45:03;;;;;;;9.70;3.67;;;;;;;;;;5025663;28;20083;-59
2020/12/04 03:47:29;;;;;;;7.82;3.65;;;;;;;;;;5022640;28;20026;-59
2020/12/04 03:49:55;;;;;;;7.47;3.17;;;;;;;;;;5020090;28;20351;-66
2020/12/04 03:52:21;;;;;;;8.80;3.53;;;;;;;;;;5020023;28;20022;-66
2020/12/04 03:54:48;;;;;;;8.43;3.55;;;;;;;;;;5009206;28;20038;-65
2020/12/04 03:57:14;;;;;;;7.03;2.67;;;;;;;;;;5015225;28;20480;-66
2020/12/04 03:59:40;;;;;;;8.20;3.55;;;;;;;;;;5023075;28;20057;-65
2020/12/04 04:02:06;;;;;;;8.85;3.53;;;;;;;;;;5016357;28;20060;-66
2020/12/04 04:04:32;;;;;;;8.00;3.72;;;;;;;;;;5022836;28;20108;-66
2020/12/04 04:06:58;;;;;;;8.38;3.78;;;;;;;;;;5019514;28;20026;-66
2020/12/04 04:09:24;;;;;;;7.15;2.92;;;;;;;;;;5005257;28;20051;-66
2020/12/04 04:11:50;;;;;;;7.88;2.95;;;;;;;;;;5022931;28;20182;-66
2020/12/04 04:14:16;;;;;;;7.63;3.00;;;;;;;;;;5027167;28;20068;-66
2020/12/04 04:16:42;;;;;;;9.68;3.50;;;;;;;;;;5017848;28;20033;-66
2020/12/04 04:19:08;;;;;;;8.75;3.60;;;;;;;;;;5009469;28;20108;-66
2020/12/04 04:21:39;;;;;;;8.35;3.70;;;;;;;;;;5022054;28;20081;-66
2020/12/04 04:24:05;;;;;;;7.97;3.58;;;;;;;;;;5027668;28;20525;-66
2020/12/04 04:26:31;;;;;;;10.35;3.33;;;;;;;;;;5015939;28;20466;-65
2020/12/04 04:28:57;;;;;;;8.43;3.35;;;;;;;;;;5027610;28;20048;-66
2020/12/04 04:31:23;;;;;;;7.47;3.20;;;;;;;;;;5016170;28;20026;-66
2020/12/04 04:33:49;;;;;;;7.80;3.42;;;;;;;;;;5027259;28;20056;-66
2020/12/04 04:36:15;;;;;;;8.77;3.58;;;;;;;;;;5014576;28;20497;-66
2020/12/04 04:38:41;;;;;;;7.40;3.40;;;;;;;;;;5027120;28;20068;-66
2020/12/04 04:41:07;;;;;;;8.35;3.38;;;;;;;;;;5017302;28;20105;-66
2020/12/04 04:43:33;;;;;;;8.10;3.65;;;;;;;;;;5025993;28;20024;-66
2020/12/04 04:46:17;;;;;;;9.52;3.83;;;;;;;;;;5019668;28;20469;-66
2020/12/04 04:48:44;;;;;;;6.07;2.70;;;;;;;;;;5025132;28;20238;-66
2020/12/04 04:51:12;;;;;;;7.72;3.05;;;;;;;;;;5020457;28;20029;-66
2020/12/04 04:53:39;;;;;;;8.75;3.70;;;;;;;;;;5012199;28;20494;-65
2020/12/04 04:56:05;;;;;;;7.43;2.92;;;;;;;;;;5009022;28;20550;-66
2020/12/04 04:58:32;;;;;;;8.95;3.78;;;;;;;;;;5010337;28;20581;-65
2020/12/04 05:00:58;;;;;;;10.60;4.18;;;;;;;;;;5008955;28;20337;-65
2020/12/04 05:03:24;;;;;;;8.68;3.97;;;;;;;;;;5010661;28;20045;-65
2020/12/04 05:05:53;;;;;;;8.50;2.78;;;;;;;;;;5009482;28;20079;-63
2020/12/04 05:08:20;;;;;;;8.23;3.53;;;;;;;;;;5012785;28;20021;-62
2020/12/04 05:10:47;;;;;;;7.55;3.03;;;;;;;;;;5012351;28;20533;-62
2020/12/04 05:13:13;;;;;;;8.20;3.60;;;;;;;;;;5025370;28;20416;-62
2020/12/04 05:15:40;;;;;;;7.20;2.83;;;;;;;;;;5026607;28;20025;-61
2020/12/04 05:18:06;;;;;;;10.43;3.15;;;;;;;;;;5023919;28;20655;-61
2020/12/04 05:20:33;;;;;;;9.02;3.53;;;;;;;;;;5017032;28;20158;-61
2020/12/04 05:23:01;;;;;;;8.25;3.42;;;;;;;;;;5025159;28;20026;-61
2020/12/04 05:25:27;;;;;;;6.97;3.17;;;;;;;;;;5026135;28;20465;-61
2020/12/04 05:27:53;;;;;;;8.80;3.55;;;;;;;;;;5017211;28;20469;-61
2020/12/04 05:30:22;;;;;;;9.55;3.28;;;;;;;;;;5025976;28;20017;-61
2020/12/04 05:32:58;;;;;;;9.53;3.87;;;;;;;;;;5020731;28;20087;-62
2020/12/04 05:35:24;;;;;;;7.53;3.30;;;;;;;;;;5012629;28;20502;-62
2020/12/04 05:37:50;;;;;;;9.98;4.13;;;;;;;;;;5018918;28;20327;-62
2020/12/04 05:40:25;;;;;;;9.63;3.67;;;;;;;;;;5024651;28;20025;-62
2020/12/04 05:42:51;;;;;;;10.30;4.55;;;;;;;;;;5025609;28;20540;-61
2020/12/04 05:45:20;;;;;;;9.30;4.43;;;;;;;;;;5017789;28;20046;-61
2020/12/04 05:47:46;;;;;;;9.32;3.40;;;;;;;;;;5022044;28;20075;-61
2020/12/04 05:50:12;;;;;;;8.82;4.07;;;;;;;;;;5010067;28;20025;-62
2020/12/04 05:52:39;;;;;;;8.05;3.40;;;;;;;;;;5020584;28;20112;-61
2020/12/04 05:55:06;;;;;;;7.57;2.90;;;;;;;;;;5019050;28;20038;-62
2020/12/04 05:57:43;;;;;;;8.73;3.80;;;;;;;;;;5022752;28;20029;-62
2020/12/04 06:00:09;;;;;;;7.45;3.33;;;;;;;;;;5018440;28;20490;-62
2020/12/04 06:02:35;;;;;;;11.93;3.60;;;;;;;;;;5013456;28;20499;-63
2020/12/04 06:05:01;;;;;;;7.97;3.35;;;;;;;;;;5024350;28;20030;-62
2020/12/04 06:07:28;;;;;;;6.68;2.97;;;;;;;;;;5021452;28;20432;-63
2020/12/04 06:09:58;;;;;;;9.20;4.18;;;;;;;;;;5019168;28;20077;-63
2020/12/04 06:12:24;;;;;;;7.78;3.42;;;;;;;;;;5024946;28;20029;-63
2020/12/04 06:14:51;;;;;;;8.32;3.17;;;;;;;;;;5019218;28;20124;-64
2020/12/04 06:17:17;;;;;;;10.57;3.70;;;;;;;;;;5022268;28;20100;-64
2020/12/04 06:19:43;;;;;;;8.95;3.17;;;;;;;;;;5006744;28;20033;-63
2020/12/04 06:22:16;;;;;;;9.85;4.20;;;;;;;;;;5022363;28;20453;-63
2020/12/04 06:24:55;;;;;;;8.23;3.63;;;;;;;;;;5023240;28;20052;-64
2020/12/04 06:27:33;;;;;;;10.32;3.70;;;;;;;;;;5021197;28;20037;-62
2020/12/04 06:29:59;;;;;;;9.20;3.30;;;;;;;;;;5022121;28;20136;-62
2020/12/04 06:32:38;;;;;;;8.20;3.50;;;;;;;;;;5017740;28;20049;-63
2020/12/04 06:35:05;;;;;;;9.75;3.00;;;;;;;;;;5021657;28;20551;-63
2020/12/04 06:37:35;;;;;;;7.07;2.78;;;;;;;;;;5019323;28;20292;-65
2020/12/04 06:40:01;;;;;;;;;;;;;;;;;;5024820;28;20064;-62
2020/12/04 06:42:33;;;;;;;7.22;2.72;;;;;;;;;;5027252;28;19953;-62
2020/12/04 06:44:59;;;;;;;7.43;2.97;;;;;;;;;;5021136;28;20029;-61
2020/12/04 06:47:27;;;;;;;6.40;2.55;;;;;;;;;;5028222;28;20021;-62
2020/12/04 06:49:53;;;;;;;6.63;2.78;;;;;;;;;;5024971;28;20383;-62
2020/12/04 06:52:19;;;;;;;7.38;3.05;;;;;;;;;;5028638;28;20523;-63
2020/12/04 06:54:47;;;;;;;8.38;2.90;;;;;;;;;;5017089;28;20116;-62
2020/12/04 06:57:13;;;;;;;6.10;2.30;;;;;;;;;;5028895;28;20441;-63
2020/12/04 06:59:40;;;;;;;7.63;3.05;;;;;;;;;;5028221;28;20036;-64
2020/12/04 07:02:07;;;;;;;7.22;3.13;;;;;;;;;;5028372;28;20520;-63
2020/12/04 07:04:33;;;;;;;6.75;2.83;;;;;;;;;;5026795;28;20044;-64
2020/12/04 07:07:13;;;;;;;7.05;2.40;;;;;;;;;;5023506;28;20014;-64
2020/12/04 07:09:43;;;;;;;6.60;2.10;;;;;;;;;;5026371;28;20511;-63
2020/12/04 07:12:14;;;;;;;5.93;2.15;;;;;;;;;;5016674;28;20021;-64
2020/12/04 07:14:42;;;;;;;6.50;2.95;;;;;;;;;;5013881;28;20037;-63
2020/12/04 07:17:08;;;;;;;7.95;2.42;;;;;;;;;;5017929;28;20018;-63
2020/12/04 07:19:35;;;;;;;6.75;2.42;;;;;;;;;;5015597;28;20030;-63
2020/12/04 07:22:01;;;;;;;8.38;2.53;;;;;;;;;;5018991;28;20026;-63
2020/12/04 07:24:27;;;;;;;8.30;2.60;;;;;;;;;;5016678;28;20039;-63
2020/12/04 07:26:57;;;;;;;6.35;2.50;;;;;;;;;;5017632;28;20053;-64
2020/12/04 07:29:24;;;;;;;5.70;2.13;;;;;;;;;;5010468;28;20080;-63
2020/12/04 07:31:52;;;;;;;6.28;2.17;;;;;;;;;;5011114;28;20481;-63
2020/12/04 07:34:20;;;;;;;6.25;2.55;;;;;;;;;;5026615;28;20095;-63
2020/12/04 07:36:53;;;;;;;6.82;2.65;;;;;;;;;;5018842;28;20021;-63
2020/12/04 07:39:24;;;;;;;8.63;3.38;;;;;;;;;;5016352;28;20681;-63
2020/12/04 07:41:50;;;;;;;7.05;2.63;;;;;;;;;;5016228;28;20021;-64
2020/12/04 07:44:17;;;;;;;7.13;2.50;;;;;;;;;;5015641;28;20349;-63
2020/12/04 07:46:43;;;;;;;5.82;2.00;;;;;;;;;;5020698;28;20476;-62
2020/12/04 07:49:13;;;;;;;10.57;2.88;;;;;;;;;;5022546;28;20033;-63
2020/12/04 07:51:40;;;;;;;6.47;2.60;;;;;;;;;;5022073;28;20025;-63
2020/12/04 07:54:18;;;;;;;8.63;2.55;;;;;;;;;;5020783;28;20038;-63
2020/12/04 07:56:47;;;;;;;6.22;2.20;;;;;;;;;;5023310;28;20033;-63
2020/12/04 07:59:14;;;;;;;6.22;2.42;;;;;;;;;;5016957;28;20045;-62
2020/12/04 08:01:41;;;;;;;6.40;2.50;;;;;;;;;;5016602;28;20064;-63
2020/12/04 08:04:10;;;;;;;6.28;2.33;;;;;;;;;;5013003;28;20014;-62
2020/12/04 08:06:37;;;;;;;6.85;2.42;;;;;;;;;;5011678;28;20083;-63
2020/12/04 08:09:11;;;;;;;5.00;2.03;;;;;;;;;;5015419;28;20029;-63
2020/12/04 08:11:38;;;;;;;6.78;2.25;;;;;;;;;;5013125;28;20058;-63
2020/12/04 08:14:05;;;;;;;7.90;2.75;;;;;;;;;;5016433;28;20041;-63
2020/12/04 08:16:33;;;;;;;6.25;2.33;;;;;;;;;;5009461;28;20487;-63
2020/12/04 08:19:03;;;;;;;6.00;2.30;;;;;;;;;;5018801;28;20136;-63
2020/12/04 08:21:29;;;;;;;7.28;2.20;;;;;;;;;;5013635;28;20033;-65
2020/12/04 08:23:55;;;;;;;4.68;1.90;;;;;;;;;;5015375;28;20034;-63
2020/12/04 08:26:21;;;;;;;5.88;2.28;;;;;;;;;;5018168;28;20018;-63
2020/12/04 08:28:52;;;;;;;6.00;2.35;;;;;;;;;;5027824;28;20040;-63
2020/12/04 08:31:21;;;;;;;6.82;2.60;;;;;;;;;;5019558;28;20024;-63
2020/12/04 08:33:47;;;;;;;6.23;2.70;;;;;;;;;;5028552;28;20025;-63
2020/12/04 08:36:13;;;;;;;7.60;2.50;;;;;;;;;;5015280;28;20436;-63
2020/12/04 08:38:48;;;;;;;6.25;2.35;;;;;;;;;;5017075;28;20033;-63
2020/12/04 08:41:14;;;;;;;5.45;2.10;;;;;;;;;;5019228;28;20025;-63
2020/12/04 08:43:41;;;;;;;5.43;2.15;;;;;;;;;;5016851;28;20025;-64
2020/12/04 08:46:11;;;;;;;5.68;2.22;;;;;;;;;;5016645;28;20124;-63
2020/12/04 08:48:38;;;;;;;7.15;2.42;;;;;;;;;;5014903;28;20033;-63
2020/12/04 08:51:06;;;;;;;6.75;2.58;;;;;;;;;;5018162;28;20029;-63
2020/12/04 08:53:32;;;;;;;7.30;2.25;;;;;;;;;;5017390;28;20082;-63
2020/12/04 08:55:59;;;;;;;4.85;1.75;;;;;;;;;;5019481;28;20615;-63
2020/12/04 08:58:27;;;;;;;6.18;2.38;;;;;;;;;;5018462;28;20136;-63
2020/12/04 09:00:54;;;;;;;6.65;2.38;;;;;;;;;;5000437;28;20443;-65
2020/12/04 09:03:21;;;;;;;9.07;2.92;;;;;;;;;;5011322;28;20099;-66
2020/12/04 09:05:47;;;;;;;7.07;2.60;;;;;;;;;;5011791;28;20040;-64
2020/12/04 09:08:13;;;;;;;7.53;2.80;;;;;;;;;;4997215;28;20034;-64
2020/12/04 09:10:39;;;;;;;7.47;2.85;;;;;;;;;;5012077;28;20084;-66
2020/12/04 09:13:06;;;;;;;7.53;3.00;;;;;;;;;;5012684;28;20075;-64
2020/12/04 09:15:32;;;;;;;7.05;2.90;;;;;;;;;;5011403;28;20596;-64
2020/12/04 09:17:59;;;;;;;7.45;2.97;;;;;;;;;;5014683;28;20739;-64
2020/12/04 09:20:25;;;;;;;9.68;3.28;;;;;;;;;;5012672;28;20401;-64
2020/12/04 09:22:52;;;;;;;8.18;3.50;;;;;;;;;;5010979;28;20060;-64
2020/12/04 09:25:18;;;;;;;7.00;2.80;;;;;;;;;;5014567;28;20018;-64
2020/12/04 09:27:45;;;;;;;6.05;2.35;;;;;;;;;;5021228;28;20033;-64
2020/12/04 09:30:12;;;;;;;7.55;2.45;;;;;;;;;;5019027;28;20032;-64
2020/12/04 09:32:38;;;;;;;6.65;2.33;;;;;;;;;;5021191;28;20037;-64
2020/12/04 09:35:07;;;;;;;5.32;2.13;;;;;;;;;;5007245;28;20073;-64
2020/12/04 09:37:34;;;;;;;6.50;2.58;;;;;;;;;;5023734;28;20032;-64
2020/12/04 09:40:02;;;;;;;5.70;2.00;;;;;;;;;;5020599;28;20696;-64
2020/12/04 09:42:28;;;;;;;6.95;2.58;;;;;;;;;;5025297;28;20025;-64
2020/12/04 09:44:55;;;;;;;7.20;2.45;;;;;;;;;;5009715;28;20053;-64
2020/12/04 09:47:22;;;;;;;6.43;2.45;;;;;;;;;;5017593;28;20477;-64
2020/12/04 09:49:48;;;;;;;5.85;2.28;;;;;;;;;;5021013;28;20397;-64
2020/12/04 09:52:15;;;;;;;5.72;2.45;;;;;;;;;;5013471;28;20014;-64
2020/12/04 09:54:42;;;;;;;6.25;2.17;;;;;;;;;;5019241;28;20046;-64
2020/12/04 09:57:09;;;;;;;8.85;2.47;;;;;;;;;;5021216;28;20060;-64
2020/12/04 09:59:36;;;;;;;6.45;2.33;;;;;;;;;;5025866;28;20029;-64
2020/12/04 10:02:02;;;;;;;6.10;2.20;;;;;;;;;;5023370;28;20357;-64
2020/12/04 10:04:29;;;;;;;5.43;1.88;;;;;;;;;;5015499;28;20463;-64
2020/12/04 10:06:56;;;;;;;5.70;2.25;;;;;;;;;;5019889;28;20014;-64
2020/12/04 10:09:23;;;;;;;5.60;1.90;;;;;;;;;;5024339;28;20022;-64
2020/12/04 10:11:49;;;;;;;5.25;2.03;;;;;;;;;;5021117;28;20334;-64
2020/12/04 10:14:16;;;;;;;6.88;2.25;;;;;;;;;;5022367;28;20038;-64
2020/12/04 10:16:43;;;;;;;6.75;2.67;;;;;;;;;;5029254;28;20570;-64
2020/12/04 10:19:09;;;;;;;4.97;1.92;;;;;;;;;;5015898;28;20033;-64
2020/12/04 10:21:36;;;;;;;6.40;2.03;;;;;;;;;;5027166;28;20080;-64
2020/12/04 10:24:06;;;;;;;6.20;2.53;;;;;;;;;;5024750;28;20026;-64
2020/12/04 10:26:32;;;;;;;5.68;2.20;;;;;;;;;;5017563;28;20052;-66
2020/12/04 10:29:00;;;;;;;6.82;2.30;;;;;;;;;;5028980;28;20021;-66
2020/12/04 10:31:26;;;;;;;4.85;1.73;;;;;;;;;;5025327;28;20018;-64
2020/12/04 10:33:52;;;;;;;7.35;2.20;;;;;;;;;;5028784;28;20026;-64
2020/12/04 10:36:18;;;;;;;5.68;2.10;;;;;;;;;;5022532;28;20052;-64
2020/12/04 10:38:44;;;;;;;7.22;2.08;;;;;;;;;;5017916;28;20701;-66
2020/12/04 10:41:10;;;;;;;4.72;1.80;;;;;;;;;;5025665;28;20029;-65
2020/12/04 10:43:36;;;;;;;4.90;1.83;;;;;;;;;;5026523;28;20112;-64
2020/12/04 10:46:02;;;;;;;4.55;1.80;;;;;;;;;;5026559;28;20461;-64
2020/12/04 10:48:28;;;;;;;6.07;1.98;;;;;;;;;;5025047;28;20100;-64
2020/12/04 10:50:54;;;;;;;4.65;1.73;;;;;;;;;;5023467;28;20022;-64
2020/12/04 10:53:24;;;;;;;4.10;1.50;;;;;;;;;;5025913;28;20060;-64
2020/12/04 10:55:53;;;;;;;4.25;1.52;;;;;;;;;;5017402;28;20025;-64
2020/12/04 10:58:19;;;;;;;7.35;2.22;;;;;;;;;;5021715;28;20022;-64
2020/12/04 11:00:48;;;;;;;4.15;1.63;;;;;;;;;;5010844;28;20030;-64
2020/12/04 11:03:33;;;;;;;5.80;1.70;;;;;;;;;;5024575;28;20060;-64
2020/12/04 11:05:59;;;;;;;7.00;1.95;;;;;;;;;;5028476;28;20030;-64
2020/12/04 11:08:25;;;;;;;5.38;1.75;;;;;;;;;;5025220;28;20473;-64
2020/12/04 11:10:51;;;;;;;6.47;2.05;;;;;;;;;;5028383;28;20095;-65
2020/12/04 11:13:17;;;;;;;5.47;1.92;;;;;;;;;;5026718;28;20037;-64
2020/12/04 11:15:44;;;;;;;6.85;2.03;;;;;;;;;;5027197;28;20481;-64
2020/12/04 11:18:10;;;;;;;4.20;1.55;;;;;;;;;;5022096;28;20151;-64
2020/12/04 11:20:36;;;;;;;6.13;2.10;;;;;;;;;;5013029;28;20116;-64
2020/12/04 11:23:02;;;;;;;11.80;2.08;;;;;;;;;;5024922;28;20041;-64
2020/12/04 11:25:28;;;;;;;5.88;2.05;;;;;;;;;;5020114;28;20014;-64
2020/12/04 11:27:54;;;;;;;5.70;1.73;;;;;;;;;;5022357;28;20076;-64
2020/12/04 11:30:22;;;;;;;5.55;1.60;;;;;;;;;;5027823;28;20505;-64
2020/12/04 11:32:49;;;;;;;5.97;2.20;;;;;;;;;;5010035;28;20048;-64
2020/12/04 11:35:16;;;;;;;4.85;1.85;;;;;;;;;;5028665;28;20038;-64
2020/12/04 11:37:45;;;;;;;5.47;2.00;;;;;;;;;;5020358;28;20118;-64
2020/12/04 11:40:11;;;;;;;5.40;1.75;;;;;;;;;;5023791;28;20033;-64
2020/12/04 11:42:39;;;;;;;6.18;1.80;;;;;;;;;;5023409;28;20026;-64
2020/12/04 11:45:06;;;;;;;6.07;2.05;;;;;;;;;;5017466;28;20044;-66
2020/12/04 11:47:33;;;;;;;4.20;1.63;;;;;;;;;;5027810;28;20021;-67
2020/12/04 11:49:59;;;;;;;5.45;1.40;;;;;;;;;;5014143;28;20033;-64
2020/12/04 11:52:26;;;;;;;5.97;1.65;;;;;;;;;;5019065;28;20064;-64
2020/12/04 11:54:52;;;;;;;4.78;1.60;;;;;;;;;;5018400;28;20386;-64
2020/12/04 11:57:18;;;;;;;5.43;1.67;;;;;;;;;;5015908;28;20026;-64
2020/12/04 11:59:44;;;;;;;4.55;1.60;;;;;;;;;;5025402;28;20029;-64
2020/12/04 12:02:10;;;;;;;5.45;1.77;;;;;;;;;;5012448;28;20025;-66
2020/12/04 12:04:36;;;;;;;4.63;1.58;;;;;;;;;;5023294;28;20032;-64
2020/12/04 12:07:02;;;;;;;5.05;1.85;;;;;;;;;;5018411;28;20554;-66
2020/12/04 12:09:28;;;;;;;4.57;1.60;;;;;;;;;;5010286;28;20021;-66
2020/12/04 12:11:54;;;;;;;6.97;1.85;;;;;;;;;;5027274;28;20098;-66
2020/12/04 12:14:20;;;;;;;6.53;1.65;;;;;;;;;;5022444;28;20041;-66
2020/12/04 12:16:47;;;;;;;6.75;1.98;;;;;;;;;;5010967;28;20022;-65
2020/12/04 12:19:13;;;;;;;5.68;1.50;;;;;;;;;;5025897;28;20408;-66
2020/12/04 12:21:42;;;;;;;6.10;1.65;;;;;;;;;;5024130;28;20021;-66
2020/12/04 12:24:09;;;;;;;3.85;1.40;;;;;;;;;;5015710;28;20029;-66
2020/12/04 12:26:35;;;;;;;4.43;1.80;;;;;;;;;;5013627;28;20017;-66
2020/12/04 12:29:01;;;;;;;4.63;1.55;;;;;;;;;;5024879;28;20425;-66
2020/12/04 12:31:27;;;;;;;4.10;1.73;;;;;;;;;;5021589;28;20025;-66
2020/12/04 12:33:53;;;;;;;5.82;1.85;;;;;;;;;;5015350;28;20022;-64
2020/12/04 12:36:19;;;;;;;5.22;1.80;;;;;;;;;;5025407;28;20036;-66
2020/12/04 12:38:46;;;;;;;4.70;1.70;;;;;;;;;;5018312;28;20207;-66
2020/12/04 12:41:12;;;;;;;6.15;1.70;;;;;;;;;;5021692;28;20030;-66
2020/12/04 12:43:39;;;;;;;4.43;1.60;;;;;;;;;;5014924;28;20030;-66
2020/12/04 12:46:05;;;;;;;6.25;1.75;;;;;;;;;;5016922;28;20053;-64
2020/12/04 12:48:31;;;;;;;5.82;2.03;;;;;;;;;;5019812;28;20029;-65
2020/12/04 12:50:57;;;;;;;4.80;1.80;;;;;;;;;;5020581;28;20024;-64
2020/12/04 12:53:23;;;;;;;5.25;1.90;;;;;;;;;;5021956;28;20468;-63
2020/12/04 12:55:49;;;;;;;7.78;2.03;;;;;;;;;;5021469;28;20040;-64
2020/12/04 12:58:15;;;;;;;5.68;1.90;;;;;;;;;;5016846;28;20018;-66
2020/12/04 13:00:42;;;;;;;9.52;1.70;;;;;;;;;;5018987;28;20116;-66
2020/12/04 13:03:08;;;;;;;3.40;1.50;;;;;;;;;;5022904;28;20481;-64
2020/12/04 13:05:34;;;;;;;5.10;1.67;;;;;;;;;;5022003;28;20026;-66
2020/12/04 13:08:12;;;;;;;6.20;1.60;;;;;;;;;;5023786;28;20631;-66
2020/12/04 13:10:39;;;;;;;3.47;1.50;;;;;;;;;;5016064;28;20100;-64
2020/12/04 13:13:05;;;;;;;4.75;1.55;;;;;;;;;;5024600;28;20151;-66
2020/12/04 13:15:32;;;;;;;5.60;1.70;;;;;;;;;;5021432;28;20044;-66
2020/12/04 13:17:59;;;;;;;4.10;1.40;;;;;;;;;;5020856;28;20124;-69
2020/12/04 13:20:25;;;;;;;5.50;2.15;;;;;;;;;;5022442;28;20423;-69
2020/12/04 13:25:36;;;;;;;5.03;1.90;;;9.00;96.30;;;;;;5015713;28;20032;-66
2020/12/04 13:28:02;;;;;;;6.03;1.90;;;9.10;97.10;;;;;;5023542;28;20037;-66
2020/12/04 13:30:29;;;;;;;5.28;1.63;;;9.00;96.80;;;;;;5024232;28;20017;-66
2020/12/04 13:32:56;;;;;;;4.20;1.50;;;8.90;96.70;;;;;;5024084;28;20631;-66
2020/12/04 13:35:21;;;;;;;4.00;1.35;;;8.90;96.40;;;;;;5014910;28;20581;-66
2020/12/04 13:37:47;;;;;;;5.07;1.50;;;8.90;96.90;;;;;;5024636;28;20029;-69
2020/12/04 13:40:13;;;;;;;5.13;1.70;;;8.80;97.00;;;;;;5020523;28;20393;-66
2020/12/04 13:42:39;;;;;;;5.22;1.70;;;8.70;97.70;;;;;;5016095;28;20033;-66
2020/12/04 13:45:05;;;;;;;4.60;1.60;;;8.70;97.50;;;;;;5013238;28;20037;-66
2020/12/04 13:47:31;;;;;;;5.40;1.40;;;8.70;97.70;;;;;;5002200;28;20176;-66
2020/12/04 13:49:57;;;;;;;4.10;1.42;;;8.70;98.30;;;;;;5014731;28;20107;-66
2020/12/04 13:52:23;;;;;;;5.15;1.83;;;8.70;97.40;;;;;;5023327;28;20053;-66
2020/12/04 13:54:49;;;;;;;5.78;1.90;;;8.60;97.70;;;;;;5024911;28;20098;-66
2020/12/04 13:57:15;;;;;;;5.22;1.70;;;8.60;97.80;;;;;;5023245;28;20180;-66
2020/12/04 13:59:41;;;;;;;4.38;1.60;;;8.60;98.20;;;;;;5014371;28;20076;-66
2020/12/04 14:02:11;;;;;;;4.93;1.80;;;8.50;98.40;;;;;;5020395;28;20123;-66
2020/12/04 14:04:37;;;;;;;3.90;1.40;;;8.40;98.80;;;;;;5012462;28;20056;-66
2020/12/04 14:07:02;;;;;;;4.55;1.70;;;8.40;98.30;;;;;;5014311;28;20048;-66
2020/12/04 14:09:28;;;;;;;4.00;1.50;;;8.40;98.20;;;;;;5017141;28;20429;-66
2020/12/04 14:11:54;;;;;;;4.18;1.60;;;8.40;98.50;;;;;;5019221;28;20493;-66
2020/12/04 14:14:20;;;;;;;4.05;1.58;;;8.40;98.40;;;;;;5014747;28;20132;-66
2020/12/04 14:16:46;;;;;;;6.40;2.00;;;8.40;98.40;;;;;;5024032;28;20026;-66
2020/12/04 14:19:11;;;;;;;5.28;1.92;;;8.30;98.90;;;;;;5025440;28;20496;-66
2020/12/04 14:21:37;;;;;;;5.22;1.70;;;8.30;98.80;;;;;;5016616;28;20164;-66
2020/12/04 14:24:03;;;;;;;5.47;2.05;;;8.30;99.40;;;;;;5025111;28;20531;-65
2020/12/04 14:26:28;;;;;;;4.75;1.88;;;8.20;99.00;;;;;;5024532;28;20029;-68
2020/12/04 14:28:54;;;;;;;6.15;1.88;;;8.20;99.60;;;;;;5021283;28;20087;-67
2020/12/04 14:31:20;;;;;;;6.32;1.75;;;8.10;99.90;;;;;;5017529;28;20169;-67